Time;durP1;ratioP1;P1;durP2;ratioP2;P2;SDS_P1;SDS_P2;PMS_P1;PMS_P2;Temp;Humidity;BMP_temperature;BMP_pressure;BME280_temperature;BME280_humidity;BME280_pressure;Samples;Min_cycle;Max_cycle;Signal;HPM_P1;HPM_P2
2022/12/25 00:01:08;;;;;;;;;;;;;;;;;;4971931;28;20378;-69
2022/12/25 00:03:33;;;;;;;;;;;;;;;;;;4897411;28;19954;-69
2022/12/25 00:06:03;;;;;;;;;;;;;;;;;;4906491;28;20700;-68
2022/12/25 00:08:33;;;;;;;;;;;;;;;;;;4891791;28;20527;-70
2022/12/25 00:10:58;;;;;;;;;;;;;;;;;;4919633;28;20010;-69
2022/12/25 00:13:26;;;;;;;;;;;;;;;;;;4905847;28;19919;-70
2022/12/25 00:15:53;;;;;;;;;;;;;;;;;;4905328;28;19919;-70
2022/12/25 00:18:19;;;;;;;;;;;;;;;;;;4912215;28;20278;-69
2022/12/25 00:20:44;;;;;;;;;;;;;;;;;;4907492;28;19923;-68
2022/12/25 00:23:10;;;;;;;;;;;;;;;;;;4907585;28;20793;-69
2022/12/25 00:25:35;;;;;;;;;;;;;;;;;;4913224;28;19923;-69
2022/12/25 00:28:03;;;;;;;;;;;;;;;;;;4906144;28;20025;-67
2022/12/25 00:30:30;;;;;;;;;;;;;;;;;;4911644;28;19923;-69
2022/12/25 00:33:01;;;;;;;;;;;;;;;;;;4906002;28;19919;-69
2022/12/25 00:35:29;;;;;;;;;;;;;;;;;;4924263;28;19929;-70
2022/12/25 00:37:57;;;;;;;;;;;;;;;;;;4908290;28;20045;-68
2022/12/25 00:40:27;;;;;;;;;;;;;;;;;;4926255;28;19929;-69
2022/12/25 00:42:52;;;;;;;;;;;;;;;;;;4924032;28;19922;-69
2022/12/25 00:45:22;;;;;;;;;;;;;;;;;;4924783;28;19929;-67
2022/12/25 00:47:47;;;;;;;;;;;;;;;;;;4977479;28;19923;-69
2022/12/25 00:50:15;;;;;;;;;;;;;;;;;;4988924;28;19923;-69
2022/12/25 00:52:40;;;;;;;;;;;;;;;;;;4924345;28;20494;-67
2022/12/25 00:55:05;;;;;;;;;;;;;;;;;;4991426;28;19953;-69
2022/12/25 00:57:31;;;;;;;;;;;;;;;;;;4916315;28;19926;-68
2022/12/25 00:59:57;;;;;;;;;;;;;;;;;;4909382;28;20465;-68
2022/12/25 01:02:22;;;;;;;;;;;;;;;;;;4987451;28;19923;-67
2022/12/25 01:04:48;;;;;;;;;;;;;;;;;;4975262;28;19981;-67
2022/12/25 01:07:15;;;;;;;;;;;;;;;;;;4990219;28;19950;-70
2022/12/25 01:12:32;;;;;;;;;;;;;;;;;;4923230;28;19926;-68
2022/12/25 01:15:00;;;;;;;;;;;;;;;;;;4908959;28;19948;-67
2022/12/25 01:17:25;;;;;;;;;;;;;;;;;;4922451;28;19923;-69
2022/12/25 01:19:55;;;;;;;;;;;;;;;;;;4972721;28;20057;-68
2022/12/25 01:22:23;;;;;;;;;;;;;;;;;;4971800;28;21790;-68
2022/12/25 01:24:48;;;;;;;;;;;;;;;;;;4901139;28;19929;-68
2022/12/25 01:27:13;;;;;;;;;;;;;;;;;;4906590;28;20025;-69
2022/12/25 01:29:43;;;;;;;;;;;;;;;;;;4921552;28;20345;-68
2022/12/25 01:32:09;;;;;;;;;;;;;;;;;;4973510;28;21141;-69
2022/12/25 01:34:35;;;;;;;;;;;;;;;;;;4923846;28;19934;-67
2022/12/25 01:37:02;;;;;;;;;;;;;;;;;;4924763;28;20345;-69
2022/12/25 01:39:28;;;;;;;;;;;;;;;;;;4901234;28;19931;-68
2022/12/25 01:41:56;;;;;;;;;;;;;;;;;;4919791;28;20418;-68
2022/12/25 01:44:22;;;;;;;;;;;;;;;;;;4990529;28;20043;-68
2022/12/25 01:46:50;;;;;;;;;;;;;;;;;;4916078;28;19923;-67
2022/12/25 01:49:16;;;;;;;;;;;;;;;;;;4922839;28;19934;-68
2022/12/25 01:51:46;;;;;;;;;;;;;;;;;;4921705;28;19923;-68
2022/12/25 01:54:13;;;;;;;;;;;;;;;;;;4988458;28;19925;-68
2022/12/25 01:56:41;;;;;;;;;;;;;;;;;;4922390;28;20003;-69
2022/12/25 01:59:07;;;;;;;;;;;;;;;;;;4923895;28;20345;-67
2022/12/25 02:01:34;;;;;;;;;;;;;;;;;;4985595;28;19922;-68
2022/12/25 02:04:02;;;;;;;;;;;;;;;;;;4922298;28;19919;-69
2022/12/25 02:06:30;;;;;;;;;;;;;;;;;;4989010;28;19922;-69
2022/12/25 02:08:56;;;;;;;;;;;;;;;;;;4923610;28;19922;-68
2022/12/25 02:14:05;;;;;;;;;;;;;;;;;;4924264;28;20033;-68
2022/12/25 02:16:31;;;;;;;;;;;;;;;;;;4972358;28;19929;-69
2022/12/25 02:18:59;;;;;;;;;;;;;;;;;;4920940;28;19936;-70
2022/12/25 02:21:26;;;;;;;;;;;;;;;;;;4907784;28;20057;-70
2022/12/25 02:23:54;;;;;;;;;;;;;;;;;;4923421;28;20006;-69
2022/12/25 02:26:25;;;;;;;;;;;;;;;;;;4923551;28;20025;-69
2022/12/25 02:28:51;;;;;;;;;;;;;;;;;;4917948;28;20244;-69
2022/12/25 02:31:20;;;;;;;;;;;;;;;;;;4904872;28;20645;-69
2022/12/25 02:34:04;;;;;;;;;;;;;;;;;;4925923;28;19923;-69
2022/12/25 02:36:30;;;;;;;;;;;;;;;;;;4916778;28;19927;-69
2022/12/25 02:41:39;;;;;;;;;;;;;;;;;;4902345;28;19927;-69
2022/12/25 03:08:52;;;;;;;;;;;;;;;;;;4902822;28;20270;-64
2022/12/25 03:11:30;;;;;;;;;;;;;;;;;;4920499;28;20468;-65
2022/12/25 03:16:49;;;;;;;;;;;;;;;;;;4906768;28;20353;-63
2022/12/25 03:16:52;;;;;;;;;;;;;;;;;;4906191;28;19923;-62
2022/12/25 03:27:39;;;;;;;;;;;;;;;;;;4905251;28;20256;-63
2022/12/25 03:32:49;;;;;;;;;;;;;;;;;;4906680;28;19922;-63
2022/12/25 03:35:26;;;;;;;;;;;;;;;;;;4925265;28;19953;-64
2022/12/25 04:36:11;;;;;;;;;;;;;;;;;;4924834;28;19980;-65
2022/12/25 04:38:41;;;;;;;;;;;;;;;;;;4923397;28;20449;-65
2022/12/25 04:41:11;;;;;;;;;;;;;;;;;;4923341;28;20403;-65
2022/12/25 04:43:41;;;;;;;;;;;;;;;;;;4918376;28;19980;-65
2022/12/25 04:46:09;;;;;;;;;;;;;;;;;;4925599;28;19922;-65
2022/12/25 04:48:37;;;;;;;;;;;;;;;;;;4907297;28;19954;-65
2022/12/25 04:51:03;;;;;;;;;;;;;;;;;;4924619;28;19930;-67
2022/12/25 04:53:28;;;;;;;;;;;;;;;;;;4907058;28;19930;-65
2022/12/25 04:55:56;;;;;;;;;;;;;;;;;;4922375;28;19919;-65
2022/12/25 05:01:37;;;;;;;;;;;;;;;;;;4924984;28;19968;-65
2022/12/25 05:04:03;;;;;;;;;;;;;;;;;;4925273;28;20188;-65
2022/12/25 05:06:33;;;;;;;;;;;;;;;;;;4990017;28;19923;-65
2022/12/25 05:08:59;;;;;;;;;;;;;;;;;;4923241;28;20270;-66
2022/12/25 05:11:26;;;;;;;;;;;;;;;;;;4925702;28;19922;-65
2022/12/25 05:13:52;;;;;;;;;;;;;;;;;;4989278;28;20201;-66
2022/12/25 05:16:19;;;;;;;;;;;;;;;;;;4973467;28;20278;-65
2022/12/25 05:18:47;;;;;;;;;;;;;;;;;;4908110;28;20039;-65
2022/12/25 05:21:14;;;;;;;;;;;;;;;;;;4923981;28;20748;-65
2022/12/25 05:23:49;;;;;;;;;;;;;;;;;;4979120;28;19981;-66
2022/12/25 05:26:14;;;;;;;;;;;;;;;;;;4917854;28;19919;-65
2022/12/25 05:28:40;;;;;;;;;;;;;;;;;;4910551;28;20459;-66
2022/12/25 05:31:10;;;;;;;;;;;;;;;;;;4922668;28;19927;-66
2022/12/25 05:33:40;;;;;;;;;;;;;;;;;;4902861;28;20093;-65
2022/12/25 05:38:59;;;;;;;;;;;;;;;;;;4914468;28;19983;-65
2022/12/25 05:41:26;;;;;;;;;;;;;;;;;;4914187;28;20480;-67
2022/12/25 05:43:52;;;;;;;;;;;;;;;;;;4979762;28;19922;-65
2022/12/25 05:46:17;;;;;;;;;;;;;;;;;;4915080;28;19926;-65
2022/12/25 05:48:45;;;;;;;;;;;;;;;;;;4979454;28;20719;-67
2022/12/25 05:51:13;;;;;;;;;;;;;;;;;;4970437;28;21459;-66
2022/12/25 05:53:43;;;;;;;;;;;;;;;;;;4981065;28;20654;-65
2022/12/25 05:56:08;;;;;;;;;;;;;;;;;;4912345;28;20500;-66
2022/12/25 05:58:36;;;;;;;;;;;;;;;;;;4902454;28;19961;-66
2022/12/25 06:01:02;;;;;;;;;;;;;;;;;;4979496;28;20361;-67
2022/12/25 06:03:27;;;;;;;;;;;;;;;;;;4913906;28;20093;-66
2022/12/25 06:05:52;;;;;;;;;;;;;;;;;;4980596;28;21015;-69
2022/12/25 06:08:20;;;;;;;;;;;;;;;;;;4913352;28;19923;-65
2022/12/25 06:10:48;;;;;;;;;;;;;;;;;;4978326;28;19927;-66
2022/12/25 06:13:13;;;;;;;;;;;;;;;;;;4912482;28;19931;-66
2022/12/25 06:15:41;;;;;;;;;;;;;;;;;;4966061;28;20574;-67
2022/12/25 06:18:09;;;;;;;;;;;;;;;;;;4979397;28;19922;-65
2022/12/25 06:20:36;;;;;;;;;;;;;;;;;;4978071;28;20584;-66
2022/12/25 06:23:02;;;;;;;;;;;;;;;;;;4912793;28;19950;-66
2022/12/25 06:25:28;;;;;;;;;;;;;;;;;;4914046;28;19989;-67
2022/12/25 06:27:56;;;;;;;;;;;;;;;;;;4896022;28;20255;-68
2022/12/25 06:30:22;;;;;;;;;;;;;;;;;;4960197;28;19929;-66
2022/12/25 06:32:47;;;;;;;;;;;;;;;;;;4960242;28;20020;-66
2022/12/25 06:35:12;;;;;;;;;;;;;;;;;;4917779;28;19922;-66
2022/12/25 06:37:40;;;;;;;;;;;;;;;;;;4923239;28;19922;-67
2022/12/25 06:40:05;;;;;;;;;;;;;;;;;;4922937;28;19932;-66
2022/12/25 06:42:30;;;;;;;;;;;;;;;;;;4923995;28;20359;-68
2022/12/25 06:44:58;;;;;;;;;;;;;;;;;;4977149;28;19950;-66
2022/12/25 06:47:24;;;;;;;;;;;;;;;;;;4923241;28;21770;-67
2022/12/25 06:49:54;;;;;;;;;;;;;;;;;;4974303;28;19929;-67
2022/12/25 06:52:19;;;;;;;;;;;;;;;;;;4920148;28;19932;-65
2022/12/25 06:54:44;;;;;;;;;;;;;;;;;;4971097;28;20352;-67
2022/12/25 06:57:12;;;;;;;;;;;;;;;;;;4921039;28;19919;-66
2022/12/25 06:59:39;;;;;;;;;;;;;;;;;;4922008;28;20021;-66
2022/12/25 07:02:09;;;;;;;;;;;;;;;;;;4975805;28;19981;-66
2022/12/25 07:04:36;;;;;;;;;;;;;;;;;;4987903;28;20577;-66
2022/12/25 07:07:02;;;;;;;;;;;;;;;;;;4921198;28;19923;-67
2022/12/25 07:09:27;;;;;;;;;;;;;;;;;;4973360;28;19919;-66
2022/12/25 07:11:52;;;;;;;;;;;;;;;;;;4908646;28;19930;-66
2022/12/25 07:14:20;;;;;;;;;;;;;;;;;;4986946;28;19933;-66
2022/12/25 07:16:47;;;;;;;;;;;;;;;;;;4905769;28;19970;-66
2022/12/25 07:19:13;;;;;;;;;;;;;;;;;;4987597;28;21526;-66
2022/12/25 07:21:40;;;;;;;;;;;;;;;;;;4898752;28;20749;-67
2022/12/25 07:24:09;;;;;;;;;;;;;;;;;;4921823;28;20398;-66
2022/12/25 07:26:37;;;;;;;;;;;;;;;;;;4983401;28;19954;-66
2022/12/25 07:29:02;;;;;;;;;;;;;;;;;;4970567;28;21473;-65
2022/12/25 07:31:30;;;;;;;;;;;;;;;;;;4920779;28;19930;-66
2022/12/25 07:33:55;;;;;;;;;;;;;;;;;;4918485;28;20083;-66
2022/12/25 07:36:21;;;;;;;;;;;;;;;;;;4982678;28;19988;-66
2022/12/25 07:38:49;;;;;;;;;;;;;;;;;;4906374;28;19926;-67
2022/12/25 07:41:15;;;;;;;;;;;;;;;;;;4919119;28;19929;-66
2022/12/25 07:43:43;;;;;;;;;;;;;;;;;;4973955;28;19918;-66
2022/12/25 07:46:08;;;;;;;;;;;;;;;;;;4986280;28;19957;-66
2022/12/25 07:48:33;;;;;;;;;;;;;;;;;;4906938;28;19964;-67
2022/12/25 07:51:01;;;;;;;;;;;;;;;;;;4920735;28;20045;-66
2022/12/25 07:53:29;;;;;;;;;;;;;;;;;;4919886;28;20333;-67
2022/12/25 07:55:54;;;;;;;;;;;;;;;;;;4906325;28;20463;-66
2022/12/25 07:58:22;;;;;;;;;;;;;;;;;;4923648;28;19961;-66
2022/12/25 08:00:50;;;;;;;;;;;;;;;;;;4990097;28;20385;-66
2022/12/25 08:03:15;;;;;;;;;;;;;;;;;;4924969;28;19968;-68
2022/12/25 08:05:41;;;;;;;;;;;;;;;;;;4916895;28;20016;-67
2022/12/25 08:08:06;;;;;;;;;;;;;;;;;;4898318;28;19926;-68
2022/12/25 08:10:31;;;;;;;;;;;;;;;;;;4990446;28;19919;-67
2022/12/25 08:12:57;;;;;;;;;;;;;;;;;;4924524;28;20011;-68
2022/12/25 08:15:23;;;;;;;;;;;;;;;;;;4980204;28;19969;-67
2022/12/25 08:17:50;;;;;;;;;;;;;;;;;;4923964;28;20951;-67
2022/12/25 08:20:15;;;;;;;;;;;;;;;;;;4904142;28;19927;-67
2022/12/25 08:22:40;;;;;;;;;;;;;;;;;;4924992;28;20092;-66
2022/12/25 08:25:14;;;;;;;;;;;;;;;;;;4920577;28;20080;-67
2022/12/25 08:27:44;;;;;;;;;;;;;;;;;;4926929;28;19926;-67
2022/12/25 08:30:12;;;;;;;;;;;;;;;;;;4924051;28;21420;-67
2022/12/25 08:32:40;;;;;;;;;;;;;;;;;;4899623;28;19923;-67
2022/12/25 08:35:05;;;;;;;;;;;;;;;;;;4986296;28;19922;-67
2022/12/25 08:37:33;;;;;;;;;;;;;;;;;;4908049;28;19929;-66
2022/12/25 08:40:01;;;;;;;;;;;;;;;;;;4925763;28;20067;-66
2022/12/25 08:42:26;;;;;;;;;;;;;;;;;;4989265;28;19930;-66
2022/12/25 08:44:56;;;;;;;;;;;;;;;;;;4921757;28;20006;-67
2022/12/25 08:47:24;;;;;;;;;;;;;;;;;;4988241;28;19937;-66
2022/12/25 08:49:49;;;;;;;;;;;;;;;;;;4899980;28;19930;-67
2022/12/25 08:52:17;;;;;;;;;;;;;;;;;;4924257;28;19918;-67
2022/12/25 08:54:42;;;;;;;;;;;;;;;;;;4924179;28;19923;-67
2022/12/25 08:57:10;;;;;;;;;;;;;;;;;;4987949;28;19984;-66
2022/12/25 08:59:38;;;;;;;;;;;;;;;;;;4908503;28;19992;-66
2022/12/25 09:02:03;;;;;;;;;;;;;;;;;;4921333;28;20071;-66
2022/12/25 09:04:29;;;;;;;;;;;;;;;;;;4976440;28;20344;-67
2022/12/25 09:06:54;;;;;;;;;;;;;;;;;;4924029;28;20275;-67
2022/12/25 09:09:19;;;;;;;;;;;;;;;;;;4923997;28;20411;-66
2022/12/25 09:11:47;;;;;;;;;;;;;;;;;;4985936;28;21574;-68
2022/12/25 09:14:13;;;;;;;;;;;;;;;;;;4896649;28;19927;-66
2022/12/25 09:16:38;;;;;;;;;;;;;;;;;;4921764;28;19922;-67
2022/12/25 09:19:08;;;;;;;;;;;;;;;;;;4969072;28;20151;-70
2022/12/25 09:21:36;;;;;;;;;;;;;;;;;;4925162;28;20048;-67
2022/12/25 09:24:02;;;;;;;;;;;;;;;;;;4909085;28;20013;-66
2022/12/25 09:26:27;;;;;;;;;;;;;;;;;;4899755;28;19923;-66
2022/12/25 09:28:55;;;;;;;;;;;;;;;;;;4921311;28;19918;-66
2022/12/25 09:31:20;;;;;;;;;;;;;;;;;;4986580;28;19923;-66
2022/12/25 09:33:48;;;;;;;;;;;;;;;;;;4987158;28;19938;-66
2022/12/25 09:36:16;;;;;;;;;;;;;;;;;;4921911;28;19919;-65
2022/12/25 09:38:44;;;;;;;;;;;;;;;;;;4924568;28;20453;-67
2022/12/25 09:41:09;;;;;;;;;;;;;;;;;;4918766;28;19922;-64
2022/12/25 09:43:35;;;;;;;;;;;;;;;;;;4989931;28;20022;-66
2022/12/25 09:46:00;;;;;;;;;;;;;;;;;;4977263;28;19926;-66
2022/12/25 09:48:26;;;;;;;;;;;;;;;;;;4923437;28;19918;-66
2022/12/25 09:50:51;;;;;;;;;;;;;;;;;;4922354;28;19930;-66
2022/12/25 09:53:19;;;;;;;;;;;;;;;;;;4922294;28;20169;-66
2022/12/25 09:55:45;;;;;;;;;;;;;;;;;;4977586;28;21976;-66
2022/12/25 09:58:11;;;;;;;;;;;;;;;;;;4907715;28;20337;-67
2022/12/25 10:00:39;;;;;;;;;;;;;;;;;;4920385;28;19921;-67
2022/12/25 10:03:06;;;;;;;;;;;;;;;;;;4986403;28;19922;-68
2022/12/25 10:05:32;;;;;;;;;;;;;;;;;;4974678;28;19947;-67
2022/12/25 10:07:58;;;;;;;;;;;;;;;;;;4920663;28;19969;-66
2022/12/25 10:10:26;;;;;;;;;;;;;;;;;;4922602;28;19929;-68
2022/12/25 10:16:08;;;;;;;;;;;;;;;;;;4921129;28;19967;-68
2022/12/25 10:18:35;;;;;;;;;;;;;;;;;;4921069;28;20908;-66
2022/12/25 10:21:01;;;;;;;;;;;;;;;;;;4922883;28;19948;-68
2022/12/25 10:23:29;;;;;;;;;;;;;;;;;;4922558;28;20431;-66
2022/12/25 10:25:55;;;;;;;;;;;;;;;;;;4921476;28;19929;-65
2022/12/25 10:28:20;;;;;;;;;;;;;;;;;;4921251;28;19919;-64
2022/12/25 10:30:45;;;;;;;;;;;;;;;;;;4969338;28;20013;-67
2022/12/25 10:33:11;;;;;;;;;;;;;;;;;;4987071;28;20100;-64
2022/12/25 10:35:39;;;;;;;;;;;;;;;;;;4987172;28;20287;-65
2022/12/25 10:38:04;;;;;;;;;;;;;;;;;;4908852;28;19918;-64
2022/12/25 10:40:32;;;;;;;;;;;;;;;;;;4919785;28;19926;-65
2022/12/25 10:42:58;;;;;;;;;;;;;;;;;;4920182;28;19919;-66
2022/12/25 10:45:23;;;;;;;;;;;;;;;;;;4921287;28;19926;-67
2022/12/25 10:47:51;;;;;;;;;;;;;;;;;;4922861;28;20186;-66
2022/12/25 10:50:19;;;;;;;;;;;;;;;;;;4904030;28;19932;-66
2022/12/25 10:52:46;;;;;;;;;;;;;;;;;;4923950;28;19918;-66
2022/12/25 10:55:17;;;;;;;;;;;;;;;;;;4919356;28;19922;-66
2022/12/25 10:57:45;;;;;;;;;;;;;;;;;;4987069;28;20350;-65
2022/12/25 11:00:10;;;;;;;;;;;;;;;;;;4916203;28;20169;-68
2022/12/25 11:02:38;;;;;;;;;;;;;;;;;;4983781;28;19922;-66
2022/12/25 11:05:05;;;;;;;;;;;;;;;;;;4922294;28;19949;-65
2022/12/25 11:07:41;;;;;;;;;;;;;;;;;;4974977;28;20021;-67
2022/12/25 11:10:07;;;;;;;;;;;;;;;;;;4920836;28;19992;-68
2022/12/25 11:12:32;;;;;;;;;;;;;;;;;;4971564;28;19930;-65
2022/12/25 11:14:58;;;;;;;;;;;;;;;;;;4918283;28;20487;-65
2022/12/25 11:17:24;;;;;;;;;;;;;;;;;;4907921;28;19923;-65
2022/12/25 11:19:52;;;;;;;;;;;;;;;;;;4985573;28;19926;-64
2022/12/25 11:22:20;;;;;;;;;;;;;;;;;;4907562;28;20001;-64
2022/12/25 11:24:45;;;;;;;;;;;;;;;;;;4920247;28;19926;-65
2022/12/25 11:27:11;;;;;;;;;;;;;;;;;;4921745;28;19923;-64
2022/12/25 11:29:36;;;;;;;;;;;;;;;;;;4923240;28;20180;-65
2022/12/25 11:32:04;;;;;;;;;;;;;;;;;;4900629;28;20797;-66
2022/12/25 11:34:34;;;;;;;;;;;;;;;;;;4925094;28;19926;-65
2022/12/25 11:36:59;;;;;;;;;;;;;;;;;;4923545;28;19922;-65
2022/12/25 11:39:25;;;;;;;;;;;;;;;;;;4924120;28;19936;-64
2022/12/25 11:41:51;;;;;;;;;;;;;;;;;;4926176;28;20570;-66
2022/12/25 11:44:16;;;;;;;;;;;;;;;;;;4993029;28;20111;-66
2022/12/25 11:46:42;;;;;;;;;;;;;;;;;;4980678;28;21456;-66
2022/12/25 11:49:07;;;;;;;;;;;;;;;;;;4925356;28;19919;-66
2022/12/25 11:51:33;;;;;;;;;;;;;;;;;;4982346;28;20093;-67
2022/12/25 11:54:00;;;;;;;;;;;;;;;;;;4976786;28;19926;-66
2022/12/25 11:56:27;;;;;;;;;;;;;;;;;;4924430;28;19918;-66
2022/12/25 11:58:54;;;;;;;;;;;;;;;;;;4925283;28;19938;-68
2022/12/25 12:01:20;;;;;;;;;;;;;;;;;;4906939;28;19970;-66
2022/12/25 12:03:48;;;;;;;;;;;;;;;;;;4923914;28;20348;-66
2022/12/25 12:06:15;;;;;;;;;;;;;;;;;;4909554;28;20005;-67
2022/12/25 12:08:40;;;;;;;;;;;;;;;;;;4920840;28;20281;-66
2022/12/25 12:11:17;;;;;;;;;;;;;;;;;;4910052;28;19919;-66
2022/12/25 12:13:43;;;;;;;;;;;;;;;;;;4926311;28;20769;-67
2022/12/25 12:16:11;;;;;;;;;;;;;;;;;;4923461;28;19922;-67
2022/12/25 12:18:40;;;;;;;;;;;;;;;;;;4923062;28;20362;-66
2022/12/25 12:21:06;;;;;;;;;;;;;;;;;;4989649;28;19922;-66
2022/12/25 12:23:31;;;;;;;;;;;;;;;;;;4922655;28;19922;-66
2022/12/25 12:25:59;;;;;;;;;;;;;;;;;;4920117;28;20181;-67
2022/12/25 12:28:27;;;;;;;;;;;;;;;;;;4976039;28;20013;-66
2022/12/25 12:30:57;;;;;;;;;;;;;;;;;;4988812;28;19929;-65
2022/12/25 12:33:22;;;;;;;;;;;;;;;;;;4909055;28;20382;-65
2022/12/25 12:35:50;;;;;;;;;;;;;;;;;;4921699;28;20732;-65
2022/12/25 12:38:18;;;;;;;;;;;;;;;;;;4977772;28;20022;-66
2022/12/25 12:40:46;;;;;;;;;;;;;;;;;;4920751;28;19923;-66
2022/12/25 12:43:11;;;;;;;;;;;;;;;;;;4919282;28;19954;-66
2022/12/25 12:45:37;;;;;;;;;;;;;;;;;;4904106;28;19918;-65
2022/12/25 12:48:02;;;;;;;;;;;;;;;;;;4968322;28;19922;-66
2022/12/25 12:50:27;;;;;;;;;;;;;;;;;;4987485;28;20057;-67
2022/12/25 12:52:55;;;;;;;;;;;;;;;;;;4920851;28;19918;-66
2022/12/25 12:55:23;;;;;;;;;;;;;;;;;;4923061;28;19919;-66
2022/12/25 12:57:51;;;;;;;;;;;;;;;;;;4921013;28;19926;-66
2022/12/25 13:00:20;;;;;;;;;;;;;;;;;;4988454;28;20453;-65
2022/12/25 13:02:45;;;;;;;;;;;;;;;;;;4920537;28;21402;-63
2022/12/25 13:05:12;;;;;;;;;;;;;;;;;;4971804;28;20370;-65
2022/12/25 13:07:43;;;;;;;;;;;;;;;;;;4989712;28;19934;-64
2022/12/25 13:10:08;;;;;;;;;;;;;;;;;;4922923;28;19922;-65
2022/12/25 13:12:34;;;;;;;;;;;;;;;;;;4908199;28;20713;-65
2022/12/25 13:15:01;;;;;;;;;;;;;;;;;;4971464;28;19923;-64
2022/12/25 13:17:29;;;;;;;;;;;;;;;;;;4925625;28;19925;-66
2022/12/25 13:19:57;;;;;;;;;;;;;;;;;;4976227;28;19974;-65
2022/12/25 13:22:24;;;;;;;;;;;;;;;;;;4971638;28;19918;-64
2022/12/25 13:24:50;;;;;;;;;;;;;;;;;;4981548;28;19973;-65
2022/12/25 13:27:20;;;;;;;;;;;;;;;;;;4922178;28;20332;-65
2022/12/25 13:29:45;;;;;;;;;;;;;;;;;;4923686;28;19971;-66
2022/12/25 13:32:10;;;;;;;;;;;;;;;;;;4921531;28;19931;-65
2022/12/25 13:34:39;;;;;;;;;;;;;;;;;;4915832;28;19923;-66
2022/12/25 13:37:04;;;;;;;;;;;;;;;;;;4898174;28;19942;-64
2022/12/25 13:39:31;;;;;;;;;;;;;;;;;;4913780;28;19966;-66
2022/12/25 13:42:09;;;;;;;;;;;;;;;;;;4977286;28;19918;-64
2022/12/25 13:44:34;;;;;;;;;;;;;;;;;;4918226;28;20087;-65
2022/12/25 13:47:01;;;;;;;;;;;;;;;;;;4923390;28;22052;-66
2022/12/25 13:49:27;;;;;;;;;;;;;;;;;;4969861;28;20414;-65
2022/12/25 13:51:54;;;;;;;;;;;;;;;;;;4922878;28;19919;-66
2022/12/25 13:54:23;;;;;;;;;;;;;;;;;;4922265;28;19929;-66
2022/12/25 13:56:50;;;;;;;;;;;;;;;;;;4923539;28;20949;-65
2022/12/25 13:59:16;;;;;;;;;;;;;;;;;;4972249;28;20388;-66
2022/12/25 14:01:41;;;;;;;;;;;;;;;;;;4907618;28;20018;-66
2022/12/25 14:04:07;;;;;;;;;;;;;;;;;;4919700;28;20230;-67
2022/12/25 14:06:32;;;;;;;;;;;;;;;;;;4923030;28;20345;-66
2022/12/25 14:08:58;;;;;;;;;;;;;;;;;;4973197;28;20338;-65
2022/12/25 14:11:23;;;;;;;;;;;;;;;;;;4922075;28;20000;-66
2022/12/25 14:13:52;;;;;;;;;;;;;;;;;;4976787;28;20396;-65
2022/12/25 14:16:17;;;;;;;;;;;;;;;;;;4921227;28;20327;-65
2022/12/25 14:18:42;;;;;;;;;;;;;;;;;;4923738;28;19971;-67
2022/12/25 14:21:08;;;;;;;;;;;;;;;;;;4922841;28;19933;-67
2022/12/25 14:23:33;;;;;;;;;;;;;;;;;;4984887;28;19930;-65
2022/12/25 14:25:59;;;;;;;;;;;;;;;;;;4922838;28;19925;-65
2022/12/25 14:28:25;;;;;;;;;;;;;;;;;;4923395;28;19961;-65
2022/12/25 14:30:50;;;;;;;;;;;;;;;;;;4922558;28;20788;-67
2022/12/25 14:33:16;;;;;;;;;;;;;;;;;;4921604;28;19957;-66
2022/12/25 14:35:44;;;;;;;;;;;;;;;;;;4920790;28;20013;-65
2022/12/25 14:38:11;;;;;;;;;;;;;;;;;;4977453;28;19925;-65
2022/12/25 14:40:37;;;;;;;;;;;;;;;;;;4987652;28;20079;-65
2022/12/25 14:43:02;;;;;;;;;;;;;;;;;;4984082;28;19923;-66
2022/12/25 14:45:30;;;;;;;;;;;;;;;;;;4921681;28;20009;-66
2022/12/25 14:47:56;;;;;;;;;;;;;;;;;;4975031;28;19991;-66
2022/12/25 14:50:23;;;;;;;;;;;;;;;;;;4989531;28;20609;-66
2022/12/25 14:52:49;;;;;;;;;;;;;;;;;;4986233;28;19923;-66
2022/12/25 14:55:14;;;;;;;;;;;;;;;;;;4987679;28;19926;-66
2022/12/25 14:57:39;;;;;;;;;;;;;;;;;;4915231;28;19922;-66
2022/12/25 15:00:05;;;;;;;;;;;;;;;;;;4906883;28;19930;-67
2022/12/25 15:05:47;;;;;;;;;;;;;;;;;;4919231;28;19930;-66
2022/12/25 15:08:12;;;;;;;;;;;;;;;;;;4985730;28;19937;-66
2022/12/25 15:10:40;;;;;;;;;;;;;;;;;;4911262;28;19930;-67
2022/12/25 15:13:07;;;;;;;;;;;;;;;;;;4922010;28;20149;-66
2022/12/25 15:15:37;;;;;;;;;;;;;;;;;;4967093;28;20013;-66
2022/12/25 15:18:07;;;;;;;;;;;;;;;;;;4984567;28;19933;-68
2022/12/25 15:20:33;;;;;;;;;;;;;;;;;;4970521;28;19927;-67
2022/12/25 15:23:01;;;;;;;;;;;;;;;;;;4910262;28;19922;-67
2022/12/25 15:25:27;;;;;;;;;;;;;;;;;;4920782;28;19923;-67
2022/12/25 15:27:55;;;;;;;;;;;;;;;;;;4920657;28;20267;-68
2022/12/25 15:30:20;;;;;;;;;;;;;;;;;;4919305;28;19976;-67
2022/12/25 15:32:45;;;;;;;;;;;;;;;;;;4966929;28;19941;-67
2022/12/25 15:35:11;;;;;;;;;;;;;;;;;;4922665;28;21364;-67
2022/12/25 15:37:39;;;;;;;;;;;;;;;;;;4920057;28;19949;-68
2022/12/25 15:40:04;;;;;;;;;;;;;;;;;;4970277;28;19984;-67
2022/12/25 15:42:29;;;;;;;;;;;;;;;;;;4921210;28;19922;-67
2022/12/25 15:44:55;;;;;;;;;;;;;;;;;;4963564;28;20246;-68
2022/12/25 15:47:23;;;;;;;;;;;;;;;;;;4986295;28;20393;-67
2022/12/25 15:49:51;;;;;;;;;;;;;;;;;;4921342;28;19923;-67
2022/12/25 15:52:21;;;;;;;;;;;;;;;;;;4920159;28;19954;-66
2022/12/25 15:54:47;;;;;;;;;;;;;;;;;;4920166;28;19922;-67
2022/12/25 15:57:12;;;;;;;;;;;;;;;;;;4970269;28;19922;-67
2022/12/25 15:59:38;;;;;;;;;;;;;;;;;;4920120;28;20338;-67
2022/12/25 16:02:04;;;;;;;;;;;;;;;;;;4922290;28;20491;-68
2022/12/25 16:04:32;;;;;;;;;;;;;;;;;;4920053;28;20500;-67
2022/12/25 16:07:00;;;;;;;;;;;;;;;;;;4963848;28;20243;-67
2022/12/25 16:09:33;;;;;;;;;;;;;;;;;;4984949;28;20045;-67
2022/12/25 16:12:00;;;;;;;;;;;;;;;;;;4921020;28;20102;-67
2022/12/25 16:14:26;;;;;;;;;;;;;;;;;;4921550;28;20284;-67
2022/12/25 16:16:51;;;;;;;;;;;;;;;;;;4920988;28;20305;-68
2022/12/25 16:19:19;;;;;;;;;;;;;;;;;;4926909;28;19937;-67
2022/12/25 16:21:45;;;;;;;;;;;;;;;;;;4924381;28;19922;-67
2022/12/25 16:24:13;;;;;;;;;;;;;;;;;;4908978;28;20139;-66
2022/12/25 16:26:43;;;;;;;;;;;;;;;;;;4990308;28;19922;-66
2022/12/25 16:29:08;;;;;;;;;;;;;;;;;;4977385;28;19958;-66
2022/12/25 16:31:33;;;;;;;;;;;;;;;;;;4900520;28;20114;-65
2022/12/25 16:33:59;;;;;;;;;;;;;;;;;;4972675;28;19922;-66
2022/12/25 16:36:24;;;;;;;;;;;;;;;;;;4925586;28;19922;-65
2022/12/25 16:38:49;;;;;;;;;;;;;;;;;;4918484;28;20321;-65
2022/12/25 16:41:18;;;;;;;;;;;;;;;;;;4926409;28;20413;-65
2022/12/25 16:43:46;;;;;;;;;;;;;;;;;;4901166;28;20051;-65
2022/12/25 16:46:11;;;;;;;;;;;;;;;;;;4918672;28;20501;-65
2022/12/25 16:48:38;;;;;;;;;;;;;;;;;;4922613;28;19918;-64
2022/12/25 16:51:04;;;;;;;;;;;;;;;;;;4925711;28;19925;-63
2022/12/25 16:53:32;;;;;;;;;;;;;;;;;;4920750;28;19919;-63
2022/12/25 16:55:57;;;;;;;;;;;;;;;;;;4923405;28;19930;-64
2022/12/25 16:58:25;;;;;;;;;;;;;;;;;;4927270;28;19930;-63
2022/12/25 17:00:51;;;;;;;;;;;;;;;;;;4926113;28;19922;-63
2022/12/25 17:03:18;;;;;;;;;;;;;;;;;;4906819;28;20055;-63
2022/12/25 17:05:46;;;;;;;;;;;;;;;;;;4912085;28;19918;-63
2022/12/25 17:08:12;;;;;;;;;;;;;;;;;;4990439;28;20458;-64
2022/12/25 17:10:39;;;;;;;;;;;;;;;;;;4926049;28;19972;-63
2022/12/25 17:13:05;;;;;;;;;;;;;;;;;;4920249;28;20654;-63
2022/12/25 17:15:31;;;;;;;;;;;;;;;;;;4924768;28;20161;-64
2022/12/25 17:17:56;;;;;;;;;;;;;;;;;;4909656;28;20348;-63
2022/12/25 17:20:22;;;;;;;;;;;;;;;;;;4924852;28;19927;-63
2022/12/25 17:22:53;;;;;;;;;;;;;;;;;;4910341;28;20090;-63
2022/12/25 17:25:18;;;;;;;;;;;;;;;;;;4917369;28;20044;-63
2022/12/25 17:27:44;;;;;;;;;;;;;;;;;;4903753;28;20552;-64
2022/12/25 17:30:12;;;;;;;;;;;;;;;;;;4918575;28;19922;-64
2022/12/25 17:32:37;;;;;;;;;;;;;;;;;;4924770;28;19923;-64
2022/12/25 17:35:03;;;;;;;;;;;;;;;;;;4911715;28;19930;-65
2022/12/25 17:37:28;;;;;;;;;;;;;;;;;;4910187;28;20356;-65
2022/12/25 17:39:53;;;;;;;;;;;;;;;;;;4904749;28;20255;-65
2022/12/25 17:42:18;;;;;;;;;;;;;;;;;;4903541;28;20041;-65
2022/12/25 17:44:49;;;;;;;;;;;;;;;;;;4903703;28;19934;-65
2022/12/25 17:47:16;;;;;;;;;;;;;;;;;;4903246;28;19972;-64
2022/12/25 17:49:42;;;;;;;;;;;;;;;;;;4904034;28;19927;-65
2022/12/25 17:52:10;;;;;;;;;;;;;;;;;;4984263;28;19969;-65
2022/12/25 17:54:38;;;;;;;;;;;;;;;;;;4970059;28;19921;-65
2022/12/25 17:57:05;;;;;;;;;;;;;;;;;;4903623;28;20335;-65
2022/12/25 17:59:31;;;;;;;;;;;;;;;;;;4907294;28;19958;-65
2022/12/25 18:01:56;;;;;;;;;;;;;;;;;;4910065;28;19978;-65
2022/12/25 18:04:21;;;;;;;;;;;;;;;;;;4910627;28;19948;-64
2022/12/25 18:06:49;;;;;;;;;;;;;;;;;;4903723;28;20323;-66
2022/12/25 18:09:15;;;;;;;;;;;;;;;;;;4903639;28;20016;-65
2022/12/25 18:11:43;;;;;;;;;;;;;;;;;;4900892;28;20001;-65
2022/12/25 18:14:11;;;;;;;;;;;;;;;;;;4901318;28;19926;-65
2022/12/25 18:16:36;;;;;;;;;;;;;;;;;;4902283;28;20629;-66
2022/12/25 18:19:01;;;;;;;;;;;;;;;;;;4903547;28;19930;-66
2022/12/25 18:21:27;;;;;;;;;;;;;;;;;;4919041;28;20014;-66
2022/12/25 18:23:55;;;;;;;;;;;;;;;;;;4903559;28;19949;-64
2022/12/25 18:26:23;;;;;;;;;;;;;;;;;;4891775;28;20372;-65
2022/12/25 18:28:49;;;;;;;;;;;;;;;;;;4889885;28;19985;-66
2022/12/25 18:31:16;;;;;;;;;;;;;;;;;;4901399;28;20391;-66
2022/12/25 18:33:41;;;;;;;;;;;;;;;;;;4908254;28;20142;-66
2022/12/25 18:36:09;;;;;;;;;;;;;;;;;;4986679;28;20220;-66
2022/12/25 18:38:36;;;;;;;;;;;;;;;;;;4922527;28;20197;-65